sensor_id;sensor_type;location;lat;lon;timestamp;P1;durP1;ratioP1;P2;durP2;ratioP2
41141;SDS011;26882;0.000;0.000;2022-09-12T00:00:35;4.90;;;2.20;;
41141;SDS011;26882;0.000;0.000;2022-09-12T00:03:27;4.40;;;1.90;;
41141;SDS011;26882;0.000;0.000;2022-09-12T00:05:57;4.70;;;2.20;;
41141;SDS011;26882;0.000;0.000;2022-09-12T00:08:28;4.70;;;2.20;;
41141;SDS011;26882;0.000;0.000;2022-09-12T00:11:05;4.60;;;2.10;;
41141;SDS011;26882;0.000;0.000;2022-09-12T00:13:38;4.00;;;2.00;;
41141;SDS011;26882;0.000;0.000;2022-09-12T00:16:20;4.40;;;1.80;;
41141;SDS011;26882;0.000;0.000;2022-09-12T00:18:51;4.30;;;2.20;;
41141;SDS011;26882;0.000;0.000;2022-09-12T00:21:23;4.50;;;1.90;;
41141;SDS011;26882;0.000;0.000;2022-09-12T00:23:54;4.50;;;2.30;;
41141;SDS011;26882;0.000;0.000;2022-09-12T00:26:25;3.70;;;2.00;;
41141;SDS011;26882;0.000;0.000;2022-09-12T00:28:56;4.00;;;2.10;;
41141;SDS011;26882;0.000;0.000;2022-09-12T00:31:27;4.40;;;2.00;;
41141;SDS011;26882;0.000;0.000;2022-09-12T00:33:58;4.00;;;1.80;;
41141;SDS011;26882;0.000;0.000;2022-09-12T00:36:31;4.10;;;2.10;;
41141;SDS011;26882;0.000;0.000;2022-09-12T00:39:02;4.70;;;2.10;;
41141;SDS011;26882;0.000;0.000;2022-09-12T00:41:35;4.80;;;2.20;;
41141;SDS011;26882;0.000;0.000;2022-09-12T00:47:15;3.30;;;1.80;;
41141;SDS011;26882;0.000;0.000;2022-09-12T00:49:50;3.50;;;1.70;;
41141;SDS011;26882;0.000;0.000;2022-09-12T00:52:24;4.00;;;1.80;;
41141;SDS011;26882;0.000;0.000;2022-09-12T00:54:58;3.60;;;1.80;;
41141;SDS011;26882;0.000;0.000;2022-09-12T00:57:36;4.10;;;1.80;;
41141;SDS011;26882;0.000;0.000;2022-09-12T01:00:10;3.50;;;1.80;;
41141;SDS011;26882;0.000;0.000;2022-09-12T01:02:45;3.80;;;2.00;;
41141;SDS011;26882;0.000;0.000;2022-09-12T01:05:18;4.00;;;2.10;;
41141;SDS011;26882;0.000;0.000;2022-09-12T01:07:50;4.50;;;2.20;;
41141;SDS011;26882;0.000;0.000;2022-09-12T01:10:23;4.20;;;2.00;;
41141;SDS011;26882;0.000;0.000;2022-09-12T01:12:54;4.70;;;2.10;;
41141;SDS011;26882;0.000;0.000;2022-09-12T01:15:27;3.10;;;1.60;;
41141;SDS011;26882;0.000;0.000;2022-09-12T01:18:09;4.20;;;2.00;;
41141;SDS011;26882;0.000;0.000;2022-09-12T01:20:55;4.30;;;1.80;;
41141;SDS011;26882;0.000;0.000;2022-09-12T01:26:54;3.80;;;1.90;;
41141;SDS011;26882;0.000;0.000;2022-09-12T01:35:22;4.20;;;2.00;;
41141;SDS011;26882;0.000;0.000;2022-09-12T01:38:03;4.20;;;2.10;;
41141;SDS011;26882;0.000;0.000;2022-09-12T01:40:45;3.80;;;1.80;;
41141;SDS011;26882;0.000;0.000;2022-09-12T01:43:28;3.90;;;1.90;;
41141;SDS011;26882;0.000;0.000;2022-09-12T01:46:07;3.70;;;2.10;;
41141;SDS011;26882;0.000;0.000;2022-09-12T01:48:44;3.20;;;1.60;;
41141;SDS011;26882;0.000;0.000;2022-09-12T01:51:20;3.80;;;1.80;;
41141;SDS011;26882;0.000;0.000;2022-09-12T01:53:56;4.20;;;2.00;;
41141;SDS011;26882;0.000;0.000;2022-09-12T01:56:30;5.70;;;2.10;;
41141;SDS011;26882;0.000;0.000;2022-09-12T01:59:05;4.50;;;2.20;;
41141;SDS011;26882;0.000;0.000;2022-09-12T02:01:41;4.70;;;2.30;;
41141;SDS011;26882;0.000;0.000;2022-09-12T02:04:19;3.70;;;1.80;;
41141;SDS011;26882;0.000;0.000;2022-09-12T02:06:54;4.50;;;2.10;;
41141;SDS011;26882;0.000;0.000;2022-09-12T02:09:30;3.40;;;1.70;;
41141;SDS011;26882;0.000;0.000;2022-09-12T02:12:06;3.60;;;1.80;;
41141;SDS011;26882;0.000;0.000;2022-09-12T02:14:42;4.00;;;2.00;;
41141;SDS011;26882;0.000;0.000;2022-09-12T02:17:16;4.30;;;1.90;;
41141;SDS011;26882;0.000;0.000;2022-09-12T02:19:53;4.50;;;1.80;;
41141;SDS011;26882;0.000;0.000;2022-09-12T02:22:27;3.60;;;1.80;;
41141;SDS011;26882;0.000;0.000;2022-09-12T02:25:03;4.50;;;2.00;;
41141;SDS011;26882;0.000;0.000;2022-09-12T02:27:38;4.60;;;1.80;;
41141;SDS011;26882;0.000;0.000;2022-09-12T02:30:11;4.00;;;1.70;;
41141;SDS011;26882;0.000;0.000;2022-09-12T02:32:57;4.20;;;1.80;;
41141;SDS011;26882;0.000;0.000;2022-09-12T02:35:37;4.20;;;1.90;;
41141;SDS011;26882;0.000;0.000;2022-09-12T02:38:13;3.80;;;1.60;;
41141;SDS011;26882;0.000;0.000;2022-09-12T02:40:49;4.00;;;1.90;;
41141;SDS011;26882;0.000;0.000;2022-09-12T02:43:23;4.30;;;2.10;;
41141;SDS011;26882;0.000;0.000;2022-09-12T02:45:54;3.40;;;1.70;;
41141;SDS011;26882;0.000;0.000;2022-09-12T02:48:28;4.20;;;1.80;;
41141;SDS011;26882;0.000;0.000;2022-09-12T02:51:00;4.10;;;2.00;;
41141;SDS011;26882;0.000;0.000;2022-09-12T02:53:33;4.40;;;2.10;;
41141;SDS011;26882;0.000;0.000;2022-09-12T02:56:10;3.50;;;1.80;;
41141;SDS011;26882;0.000;0.000;2022-09-12T02:58:41;4.20;;;2.10;;
41141;SDS011;26882;0.000;0.000;2022-09-12T03:01:24;4.00;;;1.80;;
41141;SDS011;26882;0.000;0.000;2022-09-12T03:04:14;3.40;;;1.60;;
41141;SDS011;26882;0.000;0.000;2022-09-12T03:06:56;4.50;;;2.10;;
41141;SDS011;26882;0.000;0.000;2022-09-12T03:09:38;4.70;;;1.80;;
41141;SDS011;26882;0.000;0.000;2022-09-12T03:12:22;3.50;;;1.80;;
41141;SDS011;26882;0.000;0.000;2022-09-12T03:15:17;3.40;;;1.90;;
41141;SDS011;26882;0.000;0.000;2022-09-12T03:18:00;4.10;;;1.70;;
41141;SDS011;26882;0.000;0.000;2022-09-12T03:20:45;3.50;;;1.70;;
41141;SDS011;26882;0.000;0.000;2022-09-12T03:23:27;3.10;;;1.70;;
41141;SDS011;26882;0.000;0.000;2022-09-12T03:26:05;3.30;;;1.60;;
41141;SDS011;26882;0.000;0.000;2022-09-12T03:28:38;3.70;;;2.00;;
41141;SDS011;26882;0.000;0.000;2022-09-12T03:31:14;3.40;;;1.70;;
41141;SDS011;26882;0.000;0.000;2022-09-12T03:33:46;3.20;;;1.70;;
41141;SDS011;26882;0.000;0.000;2022-09-12T03:36:20;3.80;;;1.90;;
41141;SDS011;26882;0.000;0.000;2022-09-12T03:38:52;4.00;;;2.00;;
41141;SDS011;26882;0.000;0.000;2022-09-12T03:41:23;3.20;;;1.80;;
41141;SDS011;26882;0.000;0.000;2022-09-12T03:43:54;3.70;;;2.00;;
41141;SDS011;26882;0.000;0.000;2022-09-12T03:46:26;3.50;;;1.80;;
41141;SDS011;26882;0.000;0.000;2022-09-12T03:48:56;3.80;;;1.80;;
41141;SDS011;26882;0.000;0.000;2022-09-12T03:51:27;3.70;;;1.90;;
41141;SDS011;26882;0.000;0.000;2022-09-12T03:53:58;4.40;;;2.10;;
41141;SDS011;26882;0.000;0.000;2022-09-12T03:56:29;4.30;;;1.90;;
41141;SDS011;26882;0.000;0.000;2022-09-12T03:58:59;3.60;;;1.90;;
41141;SDS011;26882;0.000;0.000;2022-09-12T04:01:30;4.30;;;1.90;;
41141;SDS011;26882;0.000;0.000;2022-09-12T04:04:02;3.90;;;1.80;;
41141;SDS011;26882;0.000;0.000;2022-09-12T04:06:32;4.10;;;1.90;;
41141;SDS011;26882;0.000;0.000;2022-09-12T04:09:04;4.20;;;1.80;;
41141;SDS011;26882;0.000;0.000;2022-09-12T04:11:35;4.30;;;1.90;;
41141;SDS011;26882;0.000;0.000;2022-09-12T04:14:06;3.70;;;1.60;;
41141;SDS011;26882;0.000;0.000;2022-09-12T04:16:36;4.30;;;1.80;;
41141;SDS011;26882;0.000;0.000;2022-09-12T04:19:08;4.00;;;1.90;;
41141;SDS011;26882;0.000;0.000;2022-09-12T04:21:39;4.30;;;2.00;;
41141;SDS011;26882;0.000;0.000;2022-09-12T04:24:10;4.20;;;2.00;;
41141;SDS011;26882;0.000;0.000;2022-09-12T04:26:41;3.90;;;1.80;;
41141;SDS011;26882;0.000;0.000;2022-09-12T04:29:13;3.80;;;1.90;;
41141;SDS011;26882;0.000;0.000;2022-09-12T04:31:47;4.80;;;1.80;;
41141;SDS011;26882;0.000;0.000;2022-09-12T04:34:18;5.10;;;2.00;;
41141;SDS011;26882;0.000;0.000;2022-09-12T04:36:50;3.70;;;1.80;;
41141;SDS011;26882;0.000;0.000;2022-09-12T04:39:20;5.40;;;2.00;;
41141;SDS011;26882;0.000;0.000;2022-09-12T04:41:52;4.10;;;2.20;;
41141;SDS011;26882;0.000;0.000;2022-09-12T04:44:23;5.20;;;2.30;;
41141;SDS011;26882;0.000;0.000;2022-09-12T04:46:54;7.10;;;2.80;;
41141;SDS011;26882;0.000;0.000;2022-09-12T04:49:24;5.20;;;2.60;;
41141;SDS011;26882;0.000;0.000;2022-09-12T04:51:55;6.20;;;3.00;;
41141;SDS011;26882;0.000;0.000;2022-09-12T04:54:26;5.80;;;2.90;;
41141;SDS011;26882;0.000;0.000;2022-09-12T04:56:57;5.90;;;2.70;;
41141;SDS011;26882;0.000;0.000;2022-09-12T04:59:28;6.50;;;2.90;;
41141;SDS011;26882;0.000;0.000;2022-09-12T05:01:59;6.60;;;3.00;;
41141;SDS011;26882;0.000;0.000;2022-09-12T05:04:30;4.70;;;2.60;;
41141;SDS011;26882;0.000;0.000;2022-09-12T05:07:01;5.20;;;2.80;;
41141;SDS011;26882;0.000;0.000;2022-09-12T05:09:32;6.20;;;2.80;;
41141;SDS011;26882;0.000;0.000;2022-09-12T05:12:05;7.80;;;3.10;;
41141;SDS011;26882;0.000;0.000;2022-09-12T05:14:36;5.30;;;2.70;;
41141;SDS011;26882;0.000;0.000;2022-09-12T05:17:07;5.30;;;2.80;;
41141;SDS011;26882;0.000;0.000;2022-09-12T05:19:37;5.70;;;2.60;;
41141;SDS011;26882;0.000;0.000;2022-09-12T05:22:09;7.10;;;3.00;;
41141;SDS011;26882;0.000;0.000;2022-09-12T05:24:40;6.40;;;2.80;;
41141;SDS011;26882;0.000;0.000;2022-09-12T05:27:12;6.10;;;2.90;;
41141;SDS011;26882;0.000;0.000;2022-09-12T05:29:42;6.40;;;2.80;;
41141;SDS011;26882;0.000;0.000;2022-09-12T05:32:13;5.10;;;2.90;;
41141;SDS011;26882;0.000;0.000;2022-09-12T05:34:44;5.40;;;2.90;;
41141;SDS011;26882;0.000;0.000;2022-09-12T05:37:15;6.50;;;3.10;;
41141;SDS011;26882;0.000;0.000;2022-09-12T05:39:46;7.20;;;2.80;;
41141;SDS011;26882;0.000;0.000;2022-09-12T05:42:17;6.10;;;2.80;;
41141;SDS011;26882;0.000;0.000;2022-09-12T05:44:47;5.00;;;2.30;;
41141;SDS011;26882;0.000;0.000;2022-09-12T05:47:19;5.20;;;2.70;;
41141;SDS011;26882;0.000;0.000;2022-09-12T05:49:50;5.20;;;2.70;;
41141;SDS011;26882;0.000;0.000;2022-09-12T05:52:21;4.90;;;2.50;;
41141;SDS011;26882;0.000;0.000;2022-09-12T05:54:54;5.20;;;2.50;;
41141;SDS011;26882;0.000;0.000;2022-09-12T05:57:27;5.30;;;3.00;;
41141;SDS011;26882;0.000;0.000;2022-09-12T05:59:58;4.40;;;2.40;;
41141;SDS011;26882;0.000;0.000;2022-09-12T06:02:29;5.70;;;2.70;;
41141;SDS011;26882;0.000;0.000;2022-09-12T06:05:00;6.10;;;2.60;;
41141;SDS011;26882;0.000;0.000;2022-09-12T06:07:30;4.70;;;2.60;;
41141;SDS011;26882;0.000;0.000;2022-09-12T06:10:04;5.10;;;2.50;;
41141;SDS011;26882;0.000;0.000;2022-09-12T06:12:35;4.40;;;2.30;;
41141;SDS011;26882;0.000;0.000;2022-09-12T06:15:09;4.90;;;2.40;;
41141;SDS011;26882;0.000;0.000;2022-09-12T06:17:40;4.80;;;2.80;;
41141;SDS011;26882;0.000;0.000;2022-09-12T06:20:13;5.50;;;2.80;;
41141;SDS011;26882;0.000;0.000;2022-09-12T06:22:43;4.40;;;2.50;;
41141;SDS011;26882;0.000;0.000;2022-09-12T06:25:14;4.80;;;2.60;;
41141;SDS011;26882;0.000;0.000;2022-09-12T06:27:45;6.60;;;2.50;;
41141;SDS011;26882;0.000;0.000;2022-09-12T06:30:16;5.00;;;2.40;;
41141;SDS011;26882;0.000;0.000;2022-09-12T06:32:47;6.40;;;2.70;;
41141;SDS011;26882;0.000;0.000;2022-09-12T06:35:18;4.40;;;2.60;;
41141;SDS011;26882;0.000;0.000;2022-09-12T06:37:51;4.90;;;2.50;;
41141;SDS011;26882;0.000;0.000;2022-09-12T06:40:27;6.20;;;2.30;;
41141;SDS011;26882;0.000;0.000;2022-09-12T06:42:58;6.30;;;2.70;;
41141;SDS011;26882;0.000;0.000;2022-09-12T06:45:32;4.80;;;2.70;;
41141;SDS011;26882;0.000;0.000;2022-09-12T06:48:04;5.70;;;2.60;;
41141;SDS011;26882;0.000;0.000;2022-09-12T06:50:35;5.60;;;2.60;;
41141;SDS011;26882;0.000;0.000;2022-09-12T06:53:07;6.80;;;2.60;;
41141;SDS011;26882;0.000;0.000;2022-09-12T06:55:38;5.40;;;2.60;;
41141;SDS011;26882;0.000;0.000;2022-09-12T06:58:09;5.30;;;3.00;;
41141;SDS011;26882;0.000;0.000;2022-09-12T07:00:39;4.60;;;2.20;;
41141;SDS011;26882;0.000;0.000;2022-09-12T07:03:10;5.70;;;2.40;;
41141;SDS011;26882;0.000;0.000;2022-09-12T07:05:40;5.00;;;2.60;;
41141;SDS011;26882;0.000;0.000;2022-09-12T07:08:11;4.70;;;2.80;;
41141;SDS011;26882;0.000;0.000;2022-09-12T07:10:41;5.90;;;2.60;;
41141;SDS011;26882;0.000;0.000;2022-09-12T07:13:12;5.10;;;2.30;;
41141;SDS011;26882;0.000;0.000;2022-09-12T07:15:43;4.50;;;2.30;;
41141;SDS011;26882;0.000;0.000;2022-09-12T07:18:13;5.00;;;2.40;;
41141;SDS011;26882;0.000;0.000;2022-09-12T07:20:44;4.50;;;2.60;;
41141;SDS011;26882;0.000;0.000;2022-09-12T07:23:14;5.30;;;2.70;;
41141;SDS011;26882;0.000;0.000;2022-09-12T07:25:52;4.90;;;2.40;;
41141;SDS011;26882;0.000;0.000;2022-09-12T07:28:26;4.80;;;2.70;;
41141;SDS011;26882;0.000;0.000;2022-09-12T07:31:03;4.80;;;2.60;;
41141;SDS011;26882;0.000;0.000;2022-09-12T07:33:34;5.80;;;3.30;;
41141;SDS011;26882;0.000;0.000;2022-09-12T07:36:07;4.40;;;2.10;;
41141;SDS011;26882;0.000;0.000;2022-09-12T07:38:40;5.10;;;2.50;;
41141;SDS011;26882;0.000;0.000;2022-09-12T07:41:16;4.90;;;2.20;;
41141;SDS011;26882;0.000;0.000;2022-09-12T07:43:47;4.70;;;2.20;;
41141;SDS011;26882;0.000;0.000;2022-09-12T07:46:21;4.90;;;2.10;;
41141;SDS011;26882;0.000;0.000;2022-09-12T07:48:52;4.20;;;2.20;;
41141;SDS011;26882;0.000;0.000;2022-09-12T07:51:24;5.10;;;2.50;;
41141;SDS011;26882;0.000;0.000;2022-09-12T07:53:55;4.60;;;2.10;;
41141;SDS011;26882;0.000;0.000;2022-09-12T07:56:28;5.50;;;2.40;;
41141;SDS011;26882;0.000;0.000;2022-09-12T07:59:00;5.00;;;2.30;;
41141;SDS011;26882;0.000;0.000;2022-09-12T08:01:32;4.70;;;2.40;;
41141;SDS011;26882;0.000;0.000;2022-09-12T08:04:03;6.10;;;2.30;;
41141;SDS011;26882;0.000;0.000;2022-09-12T08:06:35;4.90;;;2.30;;
41141;SDS011;26882;0.000;0.000;2022-09-12T08:09:07;4.70;;;2.20;;
41141;SDS011;26882;0.000;0.000;2022-09-12T08:11:37;4.90;;;2.20;;
41141;SDS011;26882;0.000;0.000;2022-09-12T08:14:08;4.50;;;2.30;;
41141;SDS011;26882;0.000;0.000;2022-09-12T08:16:39;4.70;;;2.50;;
41141;SDS011;26882;0.000;0.000;2022-09-12T08:19:09;4.80;;;2.20;;
41141;SDS011;26882;0.000;0.000;2022-09-12T08:21:40;4.30;;;2.00;;
41141;SDS011;26882;0.000;0.000;2022-09-12T08:24:12;4.60;;;2.00;;
41141;SDS011;26882;0.000;0.000;2022-09-12T08:26:44;4.80;;;2.30;;
41141;SDS011;26882;0.000;0.000;2022-09-12T08:29:14;4.90;;;2.20;;
41141;SDS011;26882;0.000;0.000;2022-09-12T08:31:45;4.30;;;1.80;;
41141;SDS011;26882;0.000;0.000;2022-09-12T08:34:17;4.50;;;2.10;;
41141;SDS011;26882;0.000;0.000;2022-09-12T08:36:49;4.60;;;2.30;;
41141;SDS011;26882;0.000;0.000;2022-09-12T08:39:22;4.20;;;2.10;;
41141;SDS011;26882;0.000;0.000;2022-09-12T08:42:00;4.20;;;2.00;;
41141;SDS011;26882;0.000;0.000;2022-09-12T08:44:48;5.40;;;2.20;;
41141;SDS011;26882;0.000;0.000;2022-09-12T08:47:27;3.70;;;2.00;;
41141;SDS011;26882;0.000;0.000;2022-09-12T08:50:09;3.80;;;2.10;;
41141;SDS011;26882;0.000;0.000;2022-09-12T08:52:48;4.70;;;2.00;;
41141;SDS011;26882;0.000;0.000;2022-09-12T08:55:28;4.10;;;2.00;;
41141;SDS011;26882;0.000;0.000;2022-09-12T08:58:01;3.90;;;1.80;;
41141;SDS011;26882;0.000;0.000;2022-09-12T09:00:44;5.10;;;2.00;;
41141;SDS011;26882;0.000;0.000;2022-09-12T09:06:38;4.60;;;2.00;;
41141;SDS011;26882;0.000;0.000;2022-09-12T09:09:20;3.70;;;1.90;;
41141;SDS011;26882;0.000;0.000;2022-09-12T09:12:02;4.70;;;1.90;;
41141;SDS011;26882;0.000;0.000;2022-09-12T09:14:50;4.00;;;2.00;;
41141;SDS011;26882;0.000;0.000;2022-09-12T09:17:26;4.50;;;2.00;;
41141;SDS011;26882;0.000;0.000;2022-09-12T09:20:08;4.10;;;2.00;;
41141;SDS011;26882;0.000;0.000;2022-09-12T09:22:47;4.50;;;2.00;;
41141;SDS011;26882;0.000;0.000;2022-09-12T09:25:22;4.00;;;2.20;;
41141;SDS011;26882;0.000;0.000;2022-09-12T09:28:01;4.10;;;2.00;;
41141;SDS011;26882;0.000;0.000;2022-09-12T09:30:35;4.50;;;1.90;;
41141;SDS011;26882;0.000;0.000;2022-09-12T09:33:09;4.90;;;2.20;;
41141;SDS011;26882;0.000;0.000;2022-09-12T09:35:47;5.10;;;2.40;;
41141;SDS011;26882;0.000;0.000;2022-09-12T09:38:27;4.40;;;2.20;;
41141;SDS011;26882;0.000;0.000;2022-09-12T09:44:00;4.50;;;2.10;;
41141;SDS011;26882;0.000;0.000;2022-09-12T09:46:32;3.70;;;2.10;;
41141;SDS011;26882;0.000;0.000;2022-09-12T09:49:04;3.80;;;2.10;;
41141;SDS011;26882;0.000;0.000;2022-09-12T09:51:39;3.60;;;1.90;;
41141;SDS011;26882;0.000;0.000;2022-09-12T09:54:17;5.00;;;2.10;;
41141;SDS011;26882;0.000;0.000;2022-09-12T09:56:49;3.80;;;2.30;;
41141;SDS011;26882;0.000;0.000;2022-09-12T09:59:26;4.20;;;2.10;;
41141;SDS011;26882;0.000;0.000;2022-09-12T10:01:59;3.90;;;1.90;;
41141;SDS011;26882;0.000;0.000;2022-09-12T10:04:33;3.80;;;1.90;;
41141;SDS011;26882;0.000;0.000;2022-09-12T10:07:05;4.30;;;2.20;;
41141;SDS011;26882;0.000;0.000;2022-09-12T10:09:36;3.80;;;2.00;;
41141;SDS011;26882;0.000;0.000;2022-09-12T10:12:25;5.00;;;2.00;;
41141;SDS011;26882;0.000;0.000;2022-09-12T10:14:59;4.40;;;2.30;;
41141;SDS011;26882;0.000;0.000;2022-09-12T10:20:00;4.00;;;2.10;;
41141;SDS011;26882;0.000;0.000;2022-09-12T10:22:32;4.10;;;2.10;;
41141;SDS011;26882;0.000;0.000;2022-09-12T10:25:14;4.40;;;2.20;;
41141;SDS011;26882;0.000;0.000;2022-09-12T10:27:53;3.70;;;2.00;;
41141;SDS011;26882;0.000;0.000;2022-09-12T10:30:28;4.60;;;2.20;;
41141;SDS011;26882;0.000;0.000;2022-09-12T10:33:06;5.00;;;2.20;;
41141;SDS011;26882;0.000;0.000;2022-09-12T10:35:48;4.80;;;2.30;;
41141;SDS011;26882;0.000;0.000;2022-09-12T10:38:24;3.50;;;2.00;;
41141;SDS011;26882;0.000;0.000;2022-09-12T10:41:00;4.20;;;2.00;;
41141;SDS011;26882;0.000;0.000;2022-09-12T10:43:35;4.70;;;2.30;;
41141;SDS011;26882;0.000;0.000;2022-09-12T10:46:22;4.60;;;2.20;;
41141;SDS011;26882;0.000;0.000;2022-09-12T10:49:17;3.60;;;1.90;;
41141;SDS011;26882;0.000;0.000;2022-09-12T10:51:49;4.30;;;2.10;;
41141;SDS011;26882;0.000;0.000;2022-09-12T10:54:22;3.60;;;2.10;;
41141;SDS011;26882;0.000;0.000;2022-09-12T10:57:30;3.90;;;2.00;;
41141;SDS011;26882;0.000;0.000;2022-09-12T11:00:09;4.50;;;2.10;;
41141;SDS011;26882;0.000;0.000;2022-09-12T11:02:50;3.90;;;2.00;;
41141;SDS011;26882;0.000;0.000;2022-09-12T11:05:45;4.10;;;2.00;;
41141;SDS011;26882;0.000;0.000;2022-09-12T11:08:34;3.70;;;2.10;;
41141;SDS011;26882;0.000;0.000;2022-09-12T11:11:11;4.10;;;2.10;;
41141;SDS011;26882;0.000;0.000;2022-09-12T11:14:03;4.10;;;2.20;;
41141;SDS011;26882;0.000;0.000;2022-09-12T11:16:42;3.90;;;1.90;;
41141;SDS011;26882;0.000;0.000;2022-09-12T11:19:39;3.80;;;2.00;;
41141;SDS011;26882;0.000;0.000;2022-09-12T11:22:22;3.30;;;1.80;;
41141;SDS011;26882;0.000;0.000;2022-09-12T11:25:12;4.80;;;2.10;;
41141;SDS011;26882;0.000;0.000;2022-09-12T11:28:01;4.10;;;1.90;;
41141;SDS011;26882;0.000;0.000;2022-09-12T11:30:41;3.90;;;2.00;;
41141;SDS011;26882;0.000;0.000;2022-09-12T11:33:25;3.60;;;2.10;;
41141;SDS011;26882;0.000;0.000;2022-09-12T11:36:03;4.20;;;2.10;;
41141;SDS011;26882;0.000;0.000;2022-09-12T11:39:04;4.10;;;2.50;;
41141;SDS011;26882;0.000;0.000;2022-09-12T11:41:42;3.90;;;2.20;;
41141;SDS011;26882;0.000;0.000;2022-09-12T11:44:16;4.10;;;2.20;;
41141;SDS011;26882;0.000;0.000;2022-09-12T11:46:49;4.80;;;2.10;;
41141;SDS011;26882;0.000;0.000;2022-09-12T11:49:31;4.40;;;2.00;;
41141;SDS011;26882;0.000;0.000;2022-09-12T11:54:38;4.20;;;2.00;;
41141;SDS011;26882;0.000;0.000;2022-09-12T11:57:17;4.30;;;2.00;;
41141;SDS011;26882;0.000;0.000;2022-09-12T11:59:53;3.80;;;2.10;;
41141;SDS011;26882;0.000;0.000;2022-09-12T12:02:27;4.50;;;2.50;;
41141;SDS011;26882;0.000;0.000;2022-09-12T12:05:19;3.80;;;1.80;;
41141;SDS011;26882;0.000;0.000;2022-09-12T12:07:57;3.90;;;2.10;;
41141;SDS011;26882;0.000;0.000;2022-09-12T12:10:36;4.30;;;2.20;;
41141;SDS011;26882;0.000;0.000;2022-09-12T12:13:13;4.50;;;2.20;;
41141;SDS011;26882;0.000;0.000;2022-09-12T12:15:48;3.90;;;2.20;;
41141;SDS011;26882;0.000;0.000;2022-09-12T12:18:23;4.20;;;2.20;;
41141;SDS011;26882;0.000;0.000;2022-09-12T12:20:56;3.70;;;2.30;;
41141;SDS011;26882;0.000;0.000;2022-09-12T12:24:08;3.80;;;2.10;;
41141;SDS011;26882;0.000;0.000;2022-09-12T12:27:00;3.90;;;2.00;;
41141;SDS011;26882;0.000;0.000;2022-09-12T12:29:40;3.90;;;2.10;;
41141;SDS011;26882;0.000;0.000;2022-09-12T12:32:27;3.70;;;2.30;;
41141;SDS011;26882;0.000;0.000;2022-09-12T12:38:24;4.20;;;2.00;;
41141;SDS011;26882;0.000;0.000;2022-09-12T12:44:47;3.80;;;2.10;;
41141;SDS011;26882;0.000;0.000;2022-09-12T12:47:20;3.40;;;1.90;;
41141;SDS011;26882;0.000;0.000;2022-09-12T12:49:56;4.70;;;1.90;;
41141;SDS011;26882;0.000;0.000;2022-09-12T12:52:40;4.90;;;2.40;;
41141;SDS011;26882;0.000;0.000;2022-09-12T12:55:18;4.50;;;2.30;;
41141;SDS011;26882;0.000;0.000;2022-09-12T12:57:52;5.20;;;2.50;;
41141;SDS011;26882;0.000;0.000;2022-09-12T13:00:32;5.30;;;2.40;;
41141;SDS011;26882;0.000;0.000;2022-09-12T13:03:17;6.20;;;2.80;;
41141;SDS011;26882;0.000;0.000;2022-09-12T13:06:00;4.80;;;2.40;;
41141;SDS011;26882;0.000;0.000;2022-09-12T13:08:33;4.90;;;2.70;;
41141;SDS011;26882;0.000;0.000;2022-09-12T13:11:10;6.10;;;2.60;;
41141;SDS011;26882;0.000;0.000;2022-09-12T13:13:44;5.50;;;2.50;;
41141;SDS011;26882;0.000;0.000;2022-09-12T13:16:32;4.90;;;2.40;;
41141;SDS011;26882;0.000;0.000;2022-09-12T13:19:10;4.40;;;2.60;;
41141;SDS011;26882;0.000;0.000;2022-09-12T13:21:55;4.70;;;2.30;;
